createdAt,value
2019-01-19T00:02:21.162Z,69.33
2019-01-19T00:05:33.344Z,69.19
2019-01-19T00:08:16.929Z,69.75
2019-01-19T00:11:31.651Z,70.05
2019-01-19T00:14:05.990Z,69.40
2019-01-19T00:17:04.008Z,69.44
2019-01-19T00:20:10.591Z,69.64
2019-01-19T00:23:29.735Z,69.97
2019-01-19T00:26:45.675Z,70.49
2019-01-19T00:30:13.791Z,69.67
2019-01-19T00:32:56.035Z,70.29
2019-01-19T00:36:15.643Z,69.96
2019-01-19T00:39:16.125Z,70.07
2019-01-19T00:42:05.862Z,70.54
2019-01-19T00:44:49.006Z,70.71
2019-01-19T00:47:53.135Z,70.78
2019-01-19T00:50:57.728Z,70.78
2019-01-19T00:53:36.888Z,70.74
2019-01-19T00:56:37.054Z,70.51
2019-01-19T00:59:13.339Z,70.33
2019-01-19T01:02:37.525Z,69.28
2019-01-19T01:05:27.928Z,68.83
2019-01-19T01:08:25.727Z,68.93
2019-01-19T01:11:36.062Z,69.62
2019-01-19T01:15:13.194Z,69.48
2019-01-19T01:18:29.405Z,69.45
2019-01-19T01:21:28.754Z,68.70
2019-01-19T01:24:25.689Z,68.69
2019-01-19T01:27:27.137Z,69.03
2019-01-19T01:30:18.044Z,69.48
2019-01-19T01:33:12.360Z,69.08
2019-01-19T01:36:20.207Z,68.29
2019-01-19T01:39:14.577Z,69.35
2019-01-19T01:42:39.682Z,68.49
2019-01-19T01:45:31.836Z,69.08
2019-01-19T01:48:37.874Z,68.54
2019-01-19T01:51:54.102Z,68.33
2019-01-19T01:55:22.405Z,68.20
2019-01-19T01:57:57.605Z,67.94
2019-01-19T02:00:36.141Z,68.65
2019-01-19T02:03:49.393Z,68.58
2019-01-19T02:07:02.812Z,68.71
2019-01-19T02:09:59.673Z,68.55
2019-01-19T02:13:13.347Z,69.70
2019-01-19T02:16:03.532Z,69.27
2019-01-19T02:19:05.974Z,69.38
2019-01-19T02:22:09.877Z,70.12
2019-01-19T02:25:12.119Z,69.48
2019-01-19T02:28:20.083Z,68.45
2019-01-19T02:31:33.861Z,68.45
2019-01-19T02:34:31.660Z,68.91
2019-01-19T02:37:24.218Z,69.41
2019-01-19T02:40:34.800Z,68.51
2019-01-19T02:43:40.790Z,68.51
2019-01-19T02:46:38.658Z,68.59
2019-01-19T02:49:42.666Z,68.57
2019-01-19T02:52:45.205Z,69.53
2019-01-19T02:55:47.242Z,69.89
2019-01-19T02:59:00.816Z,70.00
2019-01-19T03:01:51.807Z,69.20
2019-01-19T03:04:49.826Z,69.20
2019-01-19T03:08:00.593Z,69.08
2019-01-19T03:10:55.549Z,69.06
2019-01-19T03:14:14.635Z,68.81
2019-01-19T03:17:13.528Z,69.34
2019-01-19T03:20:11.448Z,69.10
2019-01-19T03:23:18.057Z,69.68
2019-01-19T03:26:13.085Z,69.61
2019-01-19T03:29:21.652Z,69.33
2019-01-19T03:32:53.779Z,69.34
2019-01-19T03:35:47.112Z,69.74
2019-01-19T03:38:49.958Z,69.44
2019-01-19T03:41:45.139Z,69.44
2019-01-19T03:44:45.357Z,70.67
2019-01-19T03:47:37.727Z,70.67
2019-01-19T03:50:37.274Z,70.18
2019-01-19T03:53:56.435Z,69.13
2019-01-19T03:57:12.678Z,69.13
2019-01-19T03:59:59.280Z,69.58
2019-01-19T04:03:01.771Z,69.69
2019-01-19T04:06:03.142Z,69.39
2019-01-19T04:09:27.282Z,69.21
2019-01-19T04:12:48.568Z,69.21
2019-01-19T04:15:46.219Z,69.68
2019-01-19T04:18:55.872Z,69.30
2019-01-19T04:22:08.019Z,69.07
2019-01-19T04:25:19.705Z,69.07
2019-01-19T04:27:49.170Z,68.54
2019-01-19T04:30:18.606Z,68.54
2019-01-19T04:32:48.074Z,68.74
2019-01-19T04:35:17.511Z,68.73
2019-01-19T04:37:46.954Z,68.81
2019-01-19T04:40:16.408Z,69.40
2019-01-19T04:42:46.531Z,68.97
2019-01-19T04:45:16.001Z,69.23
2019-01-19T04:47:45.447Z,69.23
2019-01-19T04:50:14.909Z,69.16
2019-01-19T04:52:44.343Z,69.12
2019-01-19T04:55:13.770Z,69.12
2019-01-19T04:57:43.230Z,69.11
2019-01-19T05:00:17.893Z,68.64
2019-01-19T05:02:47.432Z,68.62
2019-01-19T05:05:16.871Z,67.89
2019-01-19T05:07:46.320Z,67.89
2019-01-19T05:10:15.770Z,69.38
2019-01-19T05:12:45.205Z,69.38
2019-01-19T05:15:19.839Z,69.94
2019-01-19T05:17:49.457Z,70.24
2019-01-19T05:20:18.999Z,69.88
2019-01-19T05:22:48.385Z,69.72
2019-01-19T05:25:17.827Z,68.73
2019-01-19T05:27:47.277Z,68.73
2019-01-19T05:30:18.831Z,68.87
2019-01-19T05:32:48.378Z,68.87
2019-01-19T05:35:17.813Z,69.00
2019-01-19T05:37:47.250Z,69.00
2019-01-19T05:40:16.711Z,68.67
2019-01-19T05:42:46.149Z,68.67
2019-01-19T05:45:16.317Z,68.44
2019-01-19T05:47:45.753Z,68.71
2019-01-19T05:50:22.621Z,68.24
2019-01-19T05:52:52.042Z,68.86
2019-01-19T05:55:21.483Z,68.86
2019-01-19T05:57:50.949Z,68.56
2019-01-19T06:00:31.066Z,68.85
2019-01-19T06:03:00.541Z,68.54
2019-01-19T06:05:32.006Z,68.28
2019-01-19T06:08:01.176Z,68.72
2019-01-19T06:10:30.613Z,68.97
2019-01-19T06:13:00.051Z,68.67
2019-01-19T06:15:29.515Z,69.21
2019-01-19T06:17:58.986Z,69.41
2019-01-19T06:20:28.430Z,69.61
2019-01-19T06:22:57.881Z,69.61
2019-01-19T06:25:27.346Z,69.32
2019-01-19T06:27:56.782Z,69.60
2019-01-19T06:30:26.240Z,69.39
2019-01-19T06:32:55.682Z,69.79
2019-01-19T06:35:25.238Z,69.67
2019-01-19T06:37:54.681Z,69.59
2019-01-19T06:40:24.115Z,69.10
2019-01-19T06:42:53.597Z,68.95
2019-01-19T06:45:26.777Z,69.14
2019-01-19T06:47:56.236Z,68.50
2019-01-19T06:50:25.686Z,69.20
2019-01-19T06:52:55.162Z,68.67
2019-01-19T06:55:27.534Z,68.67
2019-01-19T06:57:57.057Z,69.07
2019-01-19T07:00:26.517Z,68.89
2019-01-19T07:02:56.052Z,68.96
2019-01-19T07:05:25.504Z,68.96
2019-01-19T07:07:54.943Z,69.18
2019-01-19T07:10:25.526Z,69.47
2019-01-19T07:12:54.957Z,68.94
2019-01-19T07:15:24.390Z,68.32
2019-01-19T07:17:53.858Z,68.32
2019-01-19T07:20:28.562Z,69.11
2019-01-19T07:22:58.021Z,69.11
2019-01-19T07:25:27.453Z,69.38
2019-01-19T07:27:57.020Z,70.00
2019-01-19T07:30:26.456Z,70.00
2019-01-19T07:32:55.891Z,68.82
2019-01-19T07:35:25.359Z,68.63
2019-01-19T07:37:54.796Z,68.81
2019-01-19T07:40:24.590Z,67.74
2019-01-19T07:43:01.038Z,67.54
2019-01-19T07:45:30.505Z,68.24
2019-01-19T07:48:00.117Z,68.04
2019-01-19T07:50:29.545Z,67.95
2019-01-19T07:52:59.005Z,67.95
2019-01-19T07:55:28.458Z,68.03
2019-01-19T07:57:57.914Z,68.03
2019-01-19T08:00:29.650Z,68.29
2019-01-19T08:02:59.081Z,68.29
2019-01-19T08:05:28.639Z,69.14
2019-01-19T08:07:58.077Z,68.49
2019-01-19T08:10:27.551Z,68.43
2019-01-19T08:12:56.978Z,68.43
2019-01-19T08:15:27.268Z,68.20
2019-01-19T08:17:56.825Z,68.78
2019-01-19T08:20:26.292Z,68.11
2019-01-19T08:22:55.774Z,67.74
2019-01-19T08:25:25.217Z,67.74
2019-01-19T08:27:54.661Z,67.57
2019-01-19T08:30:26.111Z,67.57
2019-01-19T08:32:55.550Z,68.22
2019-01-19T08:35:25.030Z,67.39
2019-01-19T08:37:54.467Z,67.58
2019-01-19T08:40:35.500Z,67.48
2019-01-19T08:43:24.221Z,67.09
2019-01-19T08:45:53.678Z,66.03
2019-01-19T08:48:23.192Z,67.45
2019-01-19T08:50:52.654Z,68.17
2019-01-19T08:53:22.093Z,68.47
2019-01-19T08:55:51.570Z,67.21
2019-01-19T08:58:21.066Z,67.82
2019-01-19T09:00:50.496Z,68.14
2019-01-19T09:03:19.967Z,67.38
2019-01-19T09:05:49.404Z,66.66
2019-01-19T09:08:18.860Z,65.28
2019-01-19T09:10:48.296Z,65.72
2019-01-19T09:13:17.848Z,65.21
2019-01-19T09:15:47.295Z,65.12
2019-01-19T09:18:16.731Z,64.22
2019-01-19T09:20:46.316Z,63.40
2019-01-19T09:23:21.541Z,62.90
2019-01-19T09:25:51.006Z,63.23
2019-01-19T09:28:20.458Z,62.70
2019-01-19T09:30:49.923Z,62.87
2019-01-19T09:33:19.352Z,62.53
2019-01-19T09:35:48.800Z,63.12
2019-01-19T09:38:18.255Z,61.89
2019-01-19T09:40:47.700Z,61.32
2019-01-19T09:43:18.288Z,60.66
2019-01-19T09:45:47.780Z,61.20
2019-01-19T09:48:17.208Z,62.97
2019-01-19T09:50:46.672Z,62.77
2019-01-19T09:53:16.104Z,60.98
2019-01-19T09:55:45.600Z,60.75
2019-01-19T09:58:15.049Z,60.96
2019-01-19T10:00:45.797Z,61.96
2019-01-19T10:03:15.417Z,59.99
2019-01-19T10:05:44.855Z,61.10
2019-01-19T10:08:14.309Z,58.90
2019-01-19T10:10:44.912Z,59.16
2019-01-19T10:13:14.366Z,58.69
2019-01-19T10:15:43.828Z,59.47
2019-01-19T10:18:13.337Z,58.68
2019-01-19T10:20:42.792Z,59.03
2019-01-19T10:23:12.246Z,58.27
2019-01-19T10:25:41.676Z,57.84
2019-01-19T10:28:11.131Z,58.45
2019-01-19T10:30:40.573Z,57.50
2019-01-19T10:33:10.033Z,57.42
2019-01-19T10:35:39.480Z,58.18
2019-01-19T10:38:08.910Z,57.89
2019-01-19T10:40:38.418Z,58.10
2019-01-19T10:43:07.882Z,58.86
2019-01-19T10:45:40.898Z,57.94
2019-01-19T10:48:10.408Z,58.03
2019-01-19T10:50:39.832Z,58.62
2019-01-19T10:53:09.292Z,58.98
2019-01-19T10:55:38.720Z,59.06
2019-01-19T10:58:08.282Z,57.48
2019-01-19T11:00:37.712Z,57.70
2019-01-19T11:03:07.151Z,56.63
2019-01-19T11:05:36.600Z,56.25
2019-01-19T11:08:07.981Z,56.97
2019-01-19T11:10:37.420Z,57.97
2019-01-19T11:13:06.872Z,57.37
2019-01-19T11:15:36.404Z,58.54
2019-01-19T11:18:06.074Z,56.04
2019-01-19T11:20:35.545Z,57.08
2019-01-19T11:23:05.054Z,55.55
2019-01-19T11:25:37.291Z,54.78
2019-01-19T11:28:06.756Z,54.69
2019-01-19T11:30:36.204Z,54.30
2019-01-19T11:33:05.845Z,53.52
2019-01-19T11:35:35.307Z,54.30
2019-01-19T11:38:11.611Z,53.01
2019-01-19T11:40:37.651Z,54.16
2019-01-19T11:43:11.176Z,53.41
2019-01-19T11:45:40.657Z,53.99
2019-01-19T11:48:10.163Z,54.98
2019-01-19T11:50:39.640Z,53.37
2019-01-19T11:53:09.088Z,51.00
2019-01-19T11:55:38.528Z,51.12
2019-01-19T11:58:08.017Z,50.96
2019-01-19T12:00:39.238Z,49.81
2019-01-19T12:03:09.113Z,48.86
2019-01-19T12:05:39.640Z,48.23
2019-01-19T12:08:10.471Z,48.51
2019-01-19T12:10:39.847Z,48.48
2019-01-19T12:13:09.274Z,48.04
2019-01-19T12:15:38.637Z,47.08
2019-01-19T12:18:08.480Z,44.50
2019-01-19T12:20:42.974Z,45.28
2019-01-19T12:23:12.386Z,42.61
2019-01-19T12:25:41.765Z,41.58
2019-01-19T12:28:11.117Z,41.20
2019-01-19T12:30:40.504Z,38.90
2019-01-19T12:33:09.869Z,37.71
2019-01-19T12:35:39.360Z,33.84
2019-01-19T12:38:08.722Z,32.41
2019-01-19T12:40:38.746Z,31.03
2019-01-19T12:43:27.773Z,29.97
2019-01-19T12:46:00.015Z,29.51
2019-01-19T12:48:29.384Z,27.23
2019-01-19T12:50:59.096Z,27.23
2019-01-19T12:53:28.540Z,28.75
2019-01-19T12:55:57.896Z,28.33
2019-01-19T12:58:27.371Z,27.58
2019-01-19T13:00:56.725Z,26.82
2019-01-19T13:03:26.269Z,26.62
2019-01-19T13:06:29.934Z,25.61
2019-01-19T13:08:59.477Z,25.47
2019-01-19T13:11:54.091Z,25.46
2019-01-19T13:14:23.565Z,23.66
2019-01-19T13:17:29.826Z,22.81
2019-01-19T13:20:27.465Z,22.81
2019-01-19T13:23:32.007Z,23.56
2019-01-19T13:26:42.074Z,23.93
2019-01-19T13:30:01.328Z,22.47
2019-01-19T13:33:10.965Z,22.44
2019-01-19T13:36:27.032Z,23.47
2019-01-19T13:39:07.713Z,23.10
2019-01-19T13:42:26.305Z,22.49
2019-01-19T13:45:50.307Z,22.32
2019-01-19T13:49:07.257Z,21.45
2019-01-19T13:52:06.937Z,21.95
2019-01-19T13:55:17.828Z,21.77
2019-01-19T13:58:24.343Z,20.37
2019-01-19T14:01:26.056Z,20.33
2019-01-19T14:04:51.350Z,21.57
2019-01-19T14:08:00.409Z,20.36
2019-01-19T14:10:48.442Z,19.46
2019-01-19T14:13:39.404Z,18.84
2019-01-19T14:16:57.071Z,18.55
2019-01-19T14:19:46.801Z,19.51
2019-01-19T14:23:01.801Z,21.93
2019-01-19T14:26:32.935Z,23.03
2019-01-19T14:29:49.392Z,25.91
2019-01-19T14:33:06.303Z,28.85
2019-01-19T14:36:22.266Z,30.53
2019-01-19T14:39:22.796Z,31.34
2019-01-19T14:42:24.841Z,32.88
2019-01-19T14:45:43.940Z,34.01
2019-01-19T14:48:57.545Z,34.22
2019-01-19T14:52:03.385Z,34.51
2019-01-19T14:54:46.537Z,35.42
2019-01-19T14:57:54.805Z,35.45
2019-01-19T15:01:06.820Z,35.62
2019-01-19T15:03:54.995Z,37.43
2019-01-19T15:07:07.725Z,39.12
2019-01-19T15:10:24.016Z,40.85
2019-01-19T15:13:39.922Z,39.64
2019-01-19T15:16:58.417Z,39.71
2019-01-19T15:20:17.697Z,38.75
2019-01-19T15:23:17.900Z,38.46
2019-01-19T15:26:20.686Z,39.35
2019-01-19T15:29:19.033Z,38.70
2019-01-19T15:32:36.653Z,38.04
2019-01-19T15:35:51.397Z,38.32
2019-01-19T15:38:48.828Z,38.92
2019-01-19T15:41:51.012Z,38.49
2019-01-19T15:45:12.986Z,38.83
2019-01-19T15:48:29.073Z,39.48
2019-01-19T15:51:40.919Z,39.79
2019-01-19T15:55:00.425Z,42.98
2019-01-19T15:57:48.655Z,43.89
2019-01-19T16:01:10.610Z,45.43
2019-01-19T16:04:21.396Z,46.36
2019-01-19T16:07:20.617Z,45.35
2019-01-19T16:10:51.797Z,44.64
2019-01-19T16:14:04.965Z,43.97
2019-01-19T16:16:51.468Z,44.14
2019-01-19T16:20:10.503Z,42.96
2019-01-19T16:23:23.968Z,43.45
2019-01-19T16:26:34.322Z,43.74
2019-01-19T16:29:39.186Z,44.37
2019-01-19T16:32:52.755Z,44.14
2019-01-19T16:35:49.593Z,43.96
2019-01-19T16:38:58.218Z,45.10
2019-01-19T16:41:56.193Z,46.01
2019-01-19T16:45:09.885Z,45.97
2019-01-19T16:48:17.728Z,48.00
2019-01-19T16:51:42.773Z,47.27
2019-01-19T16:54:34.946Z,46.87
2019-01-19T16:57:59.505Z,47.51
2019-01-19T17:01:16.749Z,47.57
2019-01-19T17:04:38.034Z,47.03
2019-01-19T17:07:54.615Z,48.03
2019-01-19T17:10:56.579Z,48.00
2019-01-19T17:13:52.082Z,47.60
2019-01-19T17:16:41.933Z,47.61
2019-01-19T17:19:50.890Z,48.21
2019-01-19T17:22:34.307Z,47.59
2019-01-19T17:25:35.781Z,47.90
2019-01-19T17:28:48.040Z,48.38
2019-01-19T17:31:34.037Z,48.33
2019-01-19T17:34:36.254Z,48.84
2019-01-19T17:37:13.957Z,48.97
2019-01-19T17:40:08.414Z,48.82
2019-01-19T17:43:27.491Z,48.67
2019-01-19T17:46:21.949Z,48.67
2019-01-19T17:49:13.093Z,49.06
2019-01-19T17:52:35.397Z,49.25
2019-01-19T17:55:37.133Z,49.47
2019-01-19T17:58:50.632Z,49.98
2019-01-19T18:01:48.931Z,50.23
2019-01-19T18:04:57.947Z,50.67
2019-01-19T18:07:48.374Z,50.45
2019-01-19T18:11:16.763Z,50.77
2019-01-19T18:14:29.446Z,50.41
2019-01-19T18:17:22.980Z,51.14
2019-01-19T18:20:30.246Z,51.90
2019-01-19T18:23:37.801Z,51.60
2019-01-19T18:26:29.369Z,51.76
2019-01-19T18:29:26.757Z,51.67
2019-01-19T18:32:16.016Z,51.24
2019-01-19T18:35:15.639Z,51.33
2019-01-19T18:38:17.819Z,50.67
2019-01-19T18:41:02.322Z,50.99
2019-01-19T18:44:19.889Z,51.22
2019-01-19T18:47:21.328Z,50.72
2019-01-19T18:50:30.521Z,51.87
2019-01-19T18:53:26.869Z,51.38
2019-01-19T18:56:32.986Z,51.48
2019-01-19T18:59:25.713Z,52.20
2019-01-19T19:02:19.273Z,51.82
2019-01-19T19:05:45.416Z,51.98
2019-01-19T19:08:40.630Z,51.63
2019-01-19T19:11:46.559Z,51.50
2019-01-19T19:14:47.829Z,51.91
2019-01-19T19:17:46.667Z,51.67
2019-01-19T19:20:31.366Z,52.01
2019-01-19T19:23:41.996Z,52.28
2019-01-19T19:26:50.736Z,51.97
2019-01-19T19:29:42.965Z,53.42
2019-01-19T19:32:58.185Z,52.66
2019-01-19T19:36:04.886Z,52.09
2019-01-19T19:39:19.087Z,52.38
2019-01-19T19:42:24.902Z,52.52
2019-01-19T19:45:37.361Z,53.27
2019-01-19T19:48:29.457Z,53.29
2019-01-19T19:51:38.339Z,52.93
2019-01-19T19:54:07.784Z,53.78
2019-01-19T19:56:35.861Z,52.99
2019-01-19T19:59:05.289Z,52.88
2019-01-19T20:01:34.741Z,52.91
2019-01-19T20:04:04.411Z,53.40
2019-01-19T20:06:33.854Z,53.19
2019-01-19T20:09:03.755Z,54.02
2019-01-19T20:11:33.866Z,53.86
2019-01-19T20:14:03.353Z,54.01
2019-01-19T20:16:32.814Z,54.50
2019-01-19T20:19:02.378Z,55.17
2019-01-19T20:21:31.838Z,55.15
2019-01-19T20:24:01.328Z,54.75
2019-01-19T20:26:30.795Z,55.82
2019-01-19T20:29:00.243Z,55.10
2019-01-19T20:31:29.722Z,55.90
2019-01-19T20:33:59.187Z,55.29
2019-01-19T20:36:28.640Z,55.54
2019-01-19T20:38:58.081Z,55.57
2019-01-19T20:41:27.649Z,55.84
2019-01-19T20:43:57.479Z,56.01
2019-01-19T20:46:26.870Z,56.40
2019-01-19T20:48:56.325Z,56.17
2019-01-19T20:51:25.770Z,55.57
2019-01-19T20:53:55.232Z,56.18
2019-01-19T20:56:24.684Z,56.60
2019-01-19T20:58:54.154Z,56.71
2019-01-19T21:01:23.595Z,56.99
2019-01-19T21:03:53.150Z,56.29
2019-01-19T21:06:22.606Z,56.51
2019-01-19T21:08:52.040Z,57.06
2019-01-19T21:11:21.501Z,57.25
2019-01-19T21:13:50.996Z,56.71
2019-01-19T21:16:20.419Z,57.13
2019-01-19T21:18:49.864Z,57.96
2019-01-19T21:21:19.347Z,57.96
2019-01-19T21:23:48.811Z,57.74
2019-01-19T21:26:18.565Z,57.82
2019-01-19T21:28:48.011Z,58.15
2019-01-19T21:31:17.448Z,57.76
2019-01-19T21:33:46.940Z,57.35
2019-01-19T21:36:16.383Z,58.06
2019-01-19T21:38:45.856Z,58.06
2019-01-19T21:41:15.302Z,57.97
2019-01-19T21:43:44.774Z,57.97
2019-01-19T21:46:14.226Z,57.69
2019-01-19T21:48:43.777Z,58.55
2019-01-19T21:51:13.221Z,58.55
2019-01-19T21:53:42.680Z,58.97
2019-01-19T21:56:12.170Z,58.78
2019-01-19T21:58:41.615Z,59.85
2019-01-19T22:01:11.083Z,58.82
2019-01-19T22:03:40.531Z,59.25
2019-01-19T22:06:09.992Z,59.50
2019-01-19T22:08:39.483Z,59.50
2019-01-19T22:11:08.964Z,59.99
2019-01-19T22:13:38.410Z,59.48
2019-01-19T22:16:07.896Z,59.75
2019-01-19T22:18:37.372Z,59.75
2019-01-19T22:21:06.815Z,58.53
2019-01-19T22:23:36.323Z,58.53
2019-01-19T22:26:07.670Z,59.04
2019-01-19T22:28:37.255Z,59.37
2019-01-19T22:31:06.679Z,59.04
2019-01-19T22:33:36.264Z,59.47
2019-01-19T22:36:05.712Z,59.47
2019-01-19T22:38:35.381Z,58.84
2019-01-19T22:41:05.017Z,58.64
2019-01-19T22:43:35.329Z,58.62
2019-01-19T22:46:04.922Z,58.62
2019-01-19T22:48:34.507Z,58.81
2019-01-19T22:51:11.051Z,58.81
2019-01-19T22:53:35.470Z,60.03
2019-01-19T22:56:05.340Z,59.33
2019-01-19T22:58:34.791Z,59.64
2019-01-19T23:01:25.314Z,59.72
2019-01-19T23:03:54.763Z,59.72
2019-01-19T23:06:24.222Z,59.43
2019-01-19T23:08:53.686Z,60.17
2019-01-19T23:11:23.143Z,59.04
2019-01-19T23:13:52.783Z,59.04
2019-01-19T23:16:22.224Z,59.38
2019-01-19T23:18:51.705Z,59.08
2019-01-19T23:21:21.143Z,59.12
2019-01-19T23:23:50.606Z,59.10
2019-01-19T23:26:20.264Z,60.34
2019-01-19T23:28:49.699Z,60.90
2019-01-19T23:31:19.171Z,60.90
2019-01-19T23:33:48.611Z,59.55
2019-01-19T23:36:18.167Z,59.78
2019-01-19T23:38:47.597Z,59.87
2019-01-19T23:41:17.037Z,59.87
2019-01-19T23:43:46.499Z,61.49
2019-01-19T23:46:15.943Z,60.64
2019-01-19T23:48:45.409Z,61.01
2019-01-19T23:51:14.850Z,60.54
2019-01-19T23:53:44.502Z,60.42
2019-01-19T23:56:13.952Z,60.91
2019-01-19T23:58:43.417Z,60.96
